Time;durP1;ratioP1;P1;durP2;ratioP2;P2;SDS_P1;SDS_P2;PMS_P1;PMS_P2;Temp;Humidity;BMP_temperature;BMP_pressure;BME280_temperature;BME280_humidity;BME280_pressure;Samples;Min_cycle;Max_cycle;Signal;HPM_P1;HPM_P2
2023/09/12 00:00:49;;;;;;;41.78;37.13;;;21.70;99.90;;;;;;5065674;28;20025;-77
2023/09/12 00:03:19;;;;;;;41.90;37.38;;;21.60;99.90;;;;;;5057586;28;20056;-77
2023/09/12 00:05:51;;;;;;;43.97;38.22;;;21.60;99.90;;;;;;5061701;28;20056;-77
2023/09/12 00:08:16;;;;;;;40.47;35.38;;;21.60;99.90;;;;;;5069178;28;20446;-77
2023/09/12 00:10:42;;;;;;;47.50;39.80;;;21.60;99.90;;;;;;5054158;28;20147;-77
2023/09/12 00:13:08;;;;;;;38.17;34.08;;;21.60;99.90;;;;;;5065141;28;20059;-77
2023/09/12 00:15:33;;;;;;;38.80;34.53;;;21.60;99.90;;;;;;5052832;28;20036;-77
2023/09/12 00:17:59;;;;;;;41.47;37.03;;;21.60;99.90;;;;;;5051200;28;20025;-77
2023/09/12 00:20:24;;;;;;;39.67;35.75;;;21.50;99.90;;;;;;5051703;28;20031;-76
2023/09/12 00:22:50;;;;;;;39.28;35.05;;;21.50;99.90;;;;;;5052035;28;20090;-77
2023/09/12 00:25:16;;;;;;;40.08;35.88;;;21.50;99.90;;;;;;5051382;28;20037;-76
2023/09/12 00:27:41;;;;;;;37.20;33.42;;;21.50;99.90;;;;;;5051884;28;20106;-77
2023/09/12 00:30:07;;;;;;;39.00;34.72;;;21.50;99.90;;;;;;5052610;28;20049;-77
2023/09/12 00:32:33;;;;;;;41.63;37.25;;;21.40;99.90;;;;;;5057811;28;20440;-77
2023/09/12 00:34:58;;;;;;;44.33;37.22;;;21.40;99.90;;;;;;5061033;28;20045;-77
2023/09/12 00:37:24;;;;;;;47.38;40.45;;;21.40;99.90;;;;;;5051169;28;20064;-77
2023/09/12 00:39:50;;;;;;;43.28;38.63;;;21.40;99.90;;;;;;5051620;28;20025;-76
2023/09/12 00:42:16;;;;;;;44.28;37.60;;;21.40;99.90;;;;;;5051368;28;20021;-76
2023/09/12 00:44:41;;;;;;;43.80;37.05;;;21.30;99.90;;;;;;5051688;28;20031;-76
2023/09/12 00:47:09;;;;;;;41.35;36.78;;;21.30;99.90;;;;;;5051411;28;20056;-76
2023/09/12 00:49:35;;;;;;;42.20;36.42;;;21.30;99.90;;;;;;5051968;28;20033;-76
2023/09/12 00:52:02;;;;;;;46.97;40.13;;;21.30;99.90;;;;;;5051521;28;20016;-76
2023/09/12 00:54:27;;;;;;;45.50;35.47;;;21.30;99.90;;;;;;5051401;28;20021;-76
2023/09/12 00:56:54;;;;;;;46.67;40.65;;;21.30;99.90;;;;;;5049882;28;20049;-76
2023/09/12 00:59:20;;;;;;;42.95;38.28;;;21.30;99.90;;;;;;5050903;28;20497;-76
2023/09/12 01:01:47;;;;;;;51.03;42.03;;;21.30;99.90;;;;;;5051557;28;20135;-76
2023/09/12 01:04:12;;;;;;;50.97;43.65;;;21.40;99.90;;;;;;5051405;28;20074;-76
2023/09/12 01:06:38;;;;;;;52.13;41.47;;;21.40;99.90;;;;;;5051409;28;20099;-76
2023/09/12 01:09:04;;;;;;;41.47;37.10;;;21.40;99.90;;;;;;5061328;28;20029;-77
2023/09/12 01:11:31;;;;;;;46.88;40.70;;;21.30;99.90;;;;;;5067932;28;20028;-76
2023/09/12 01:13:56;;;;;;;44.65;39.80;;;21.40;99.90;;;;;;5051796;28;20549;-76
2023/09/12 01:16:22;;;;;;;47.38;40.65;;;21.30;99.90;;;;;;5051356;28;20029;-76
2023/09/12 01:18:48;;;;;;;47.75;42.65;;;21.30;99.90;;;;;;5060560;28;20024;-76
2023/09/12 01:21:40;;;;;;;47.17;40.75;;;21.30;99.90;;;;;;5063530;28;20096;-76
2023/09/12 01:24:32;;;;;;;45.75;40.78;;;21.20;99.90;;;;;;5039005;28;20021;-76
2023/09/12 01:27:00;;;;;;;41.65;37.10;;;21.20;99.90;;;;;;5042560;28;20025;-75
2023/09/12 01:29:26;;;;;;;44.15;39.20;;;21.10;99.90;;;;;;5051035;28;20025;-76
2023/09/12 01:31:53;;;;;;;42.13;37.58;;;21.10;99.90;;;;;;5049577;28;20036;-76
2023/09/12 01:34:19;;;;;;;46.35;41.40;;;21.10;99.90;;;;;;5050967;28;20020;-76
2023/09/12 01:36:44;;;;;;;45.97;39.38;;;21.10;99.90;;;;;;5051326;28;20489;-76
2023/09/12 01:39:10;;;;;;;45.85;40.83;;;21.00;99.90;;;;;;5050169;28;20036;-76
2023/09/12 01:41:41;;;;;;;45.63;40.58;;;21.00;99.90;;;;;;5052082;28;20489;-76
2023/09/12 01:44:10;;;;;;;40.92;36.38;;;21.00;99.90;;;;;;5052409;28;20029;-77
2023/09/12 01:46:36;;;;;;;42.38;37.80;;;21.00;99.90;;;;;;5066548;28;20053;-76
2023/09/12 01:49:04;;;;;;;45.30;40.20;;;20.90;99.90;;;;;;5051215;28;20386;-76
2023/09/12 01:51:30;;;;;;;46.45;37.03;;;20.90;99.90;;;;;;5051604;28;20122;-76
2023/09/12 01:53:56;;;;;;;48.40;37.78;;;20.90;99.90;;;;;;5052969;28;20096;-76
2023/09/12 01:56:23;;;;;;;43.15;34.90;;;20.90;99.90;;;;;;5051226;28;20397;-76
2023/09/12 01:58:49;;;;;;;38.17;34.03;;;20.90;99.90;;;;;;5052669;28;20031;-76
2023/09/12 02:01:14;;;;;;;42.17;34.67;;;20.80;99.90;;;;;;5067014;28;20112;-76
2023/09/12 02:03:40;;;;;;;39.00;34.95;;;20.80;99.90;;;;;;5052066;28;20064;-76
2023/09/12 02:06:05;;;;;;;36.47;32.35;;;20.80;99.90;;;;;;5065507;28;20037;-76
2023/09/12 02:08:31;;;;;;;37.90;33.72;;;20.80;99.90;;;;;;5051847;28;20028;-76
2023/09/12 02:10:56;;;;;;;37.95;33.67;;;20.70;99.90;;;;;;5051307;28;20043;-76
2023/09/12 02:13:22;;;;;;;42.33;36.58;;;20.70;99.90;;;;;;5051427;28;20013;-76
2023/09/12 02:15:47;;;;;;;43.60;38.65;;;20.70;99.90;;;;;;5050975;28;20476;-76
2023/09/12 02:18:13;;;;;;;38.70;34.58;;;20.70;99.90;;;;;;5061916;28;20461;-75
2023/09/12 02:20:41;;;;;;;45.40;38.17;;;20.70;99.90;;;;;;5066961;28;20478;-76
2023/09/12 02:23:07;;;;;;;40.20;34.67;;;20.60;99.90;;;;;;5056528;28;20386;-76
2023/09/12 02:25:32;;;;;;;43.03;35.95;;;20.60;99.90;;;;;;5061685;28;20025;-76
2023/09/12 02:27:58;;;;;;;44.67;36.72;;;20.60;99.90;;;;;;5047125;28;20784;-76
2023/09/12 02:30:23;;;;;;;48.22;40.20;;;20.60;99.90;;;;;;5049320;28;20036;-76
2023/09/12 02:32:49;;;;;;;41.50;35.08;;;20.60;99.90;;;;;;5050094;28;20021;-76
2023/09/12 02:35:15;;;;;;;40.17;35.30;;;20.50;99.90;;;;;;5049696;28;20028;-76
2023/09/12 02:37:40;;;;;;;42.75;35.33;;;20.50;99.90;;;;;;5057910;28;20038;-76
2023/09/12 02:40:06;;;;;;;39.97;33.75;;;20.50;99.90;;;;;;5061826;28;20052;-76
2023/09/12 02:42:32;;;;;;;46.15;36.78;;;20.50;99.90;;;;;;5066375;28;20024;-76
2023/09/12 02:44:58;;;;;;;43.00;35.35;;;20.40;99.90;;;;;;5065963;28;20027;-76
2023/09/12 02:47:24;;;;;;;39.75;33.08;;;20.40;99.90;;;;;;5067153;28;20059;-76
2023/09/12 02:49:49;;;;;;;41.20;36.00;;;20.40;99.90;;;;;;5062272;28;20492;-76
2023/09/12 02:52:15;;;;;;;34.70;31.05;;;20.40;99.90;;;;;;5055219;28;20073;-76
2023/09/12 02:54:40;;;;;;;33.33;28.85;;;20.40;99.90;;;;;;5056589;28;20061;-76
2023/09/12 02:57:06;;;;;;;34.25;28.77;;;20.30;99.90;;;;;;5065388;28;20079;-76
2023/09/12 02:59:31;;;;;;;33.25;29.52;;;20.30;99.90;;;;;;5058741;28;20141;-76
2023/09/12 03:01:58;;;;;;;40.08;31.30;;;20.30;99.90;;;;;;5066163;28;20048;-76
2023/09/12 03:04:25;;;;;;;32.30;28.80;;;20.30;99.90;;;;;;5059926;28;20425;-76
2023/09/12 03:06:51;;;;;;;31.67;28.27;;;20.30;99.90;;;;;;5064711;28;20050;-75
2023/09/12 03:09:18;;;;;;;30.95;27.00;;;20.20;99.90;;;;;;5068476;28;20045;-76
2023/09/12 03:11:44;;;;;;;32.60;28.33;;;20.20;99.90;;;;;;5068143;28;20028;-76
2023/09/12 03:14:09;;;;;;;34.22;28.42;;;20.20;99.90;;;;;;5067416;28;20078;-75
2023/09/12 03:16:36;;;;;;;31.42;28.10;;;20.20;99.90;;;;;;5055124;28;20060;-75
2023/09/12 03:19:02;;;;;;;32.10;28.35;;;20.20;99.90;;;;;;5057440;28;20067;-76
2023/09/12 03:21:28;;;;;;;34.15;29.35;;;20.10;99.90;;;;;;5049423;28;20055;-76
2023/09/12 03:23:54;;;;;;;37.13;28.83;;;20.10;99.90;;;;;;5049557;28;20017;-76
2023/09/12 03:26:19;;;;;;;35.35;29.77;;;20.10;99.90;;;;;;5052691;28;20029;-76
2023/09/12 03:28:45;;;;;;;31.73;27.42;;;20.00;99.90;;;;;;5058173;28;20105;-76
2023/09/12 03:31:13;;;;;;;31.00;27.75;;;20.00;99.90;;;;;;5064717;28;20103;-76
2023/09/12 03:33:47;;;;;;;32.42;27.50;;;20.00;99.90;;;;;;5057011;28;20107;-77
2023/09/12 03:36:13;;;;;;;28.25;25.35;;;20.00;99.90;;;;;;5048384;28;20071;-76
2023/09/12 03:38:38;;;;;;;27.58;23.83;;;20.00;99.90;;;;;;5049382;28;20044;-76
2023/09/12 03:41:04;;;;;;;24.23;21.75;;;20.00;99.90;;;;;;5048036;28;20021;-76
2023/09/12 03:43:30;;;;;;;23.20;20.77;;;20.00;99.90;;;;;;5049183;28;20461;-76
2023/09/12 03:45:56;;;;;;;22.48;20.42;;;20.00;99.90;;;;;;5048719;28;20033;-76
2023/09/12 03:48:21;;;;;;;20.83;18.65;;;20.00;99.90;;;;;;5048784;28;20450;-76
2023/09/12 03:50:47;;;;;;;24.58;22.25;;;20.00;99.90;;;;;;5049407;28;20028;-76
2023/09/12 03:53:14;;;;;;;22.00;19.90;;;20.10;99.90;;;;;;5048330;28;20107;-75
2023/09/12 03:55:39;;;;;;;23.13;20.75;;;20.10;99.90;;;;;;5048192;28;20033;-76
2023/09/12 03:58:05;;;;;;;24.17;21.85;;;20.10;99.90;;;;;;5047777;28;20067;-76
2023/09/12 04:00:31;;;;;;;23.75;21.33;;;20.10;99.90;;;;;;5048582;28;20466;-76
2023/09/12 04:02:56;;;;;;;23.25;21.05;;;20.10;99.90;;;;;;5054241;28;20033;-76
2023/09/12 04:05:22;;;;;;;27.95;24.90;;;20.00;99.90;;;;;;5048399;28;20389;-76
2023/09/12 04:07:47;;;;;;;29.27;25.83;;;20.00;99.90;;;;;;5049072;28;20061;-76
2023/09/12 04:10:13;;;;;;;28.60;25.70;;;20.00;99.90;;;;;;5046566;28;20075;-76
2023/09/12 04:12:39;;;;;;;26.75;23.85;;;20.00;99.90;;;;;;5048791;28;20029;-76
2023/09/12 04:15:06;;;;;;;27.98;25.13;;;20.00;99.90;;;;;;5048567;28;20156;-76
2023/09/12 04:17:31;;;;;;;23.77;21.65;;;20.00;99.90;;;;;;5048622;28;20029;-76
2023/09/12 04:19:57;;;;;;;21.75;19.58;;;20.00;99.90;;;;;;5049268;28;20021;-76
2023/09/12 04:22:22;;;;;;;21.42;19.52;;;20.00;99.90;;;;;;5048481;28;20039;-76
2023/09/12 04:24:48;;;;;;;20.73;19.02;;;19.90;99.90;;;;;;5047309;28;20045;-76
2023/09/12 04:27:13;;;;;;;18.92;16.95;;;19.90;99.90;;;;;;5047185;28;20083;-76
2023/09/12 04:29:39;;;;;;;20.17;18.27;;;19.90;99.90;;;;;;5049068;28;20040;-76
2023/09/12 04:32:05;;;;;;;35.35;19.90;;;19.90;99.90;;;;;;5051504;28;20033;-76
2023/09/12 04:34:31;;;;;;;31.52;18.35;;;19.90;99.90;;;;;;5052691;28;20029;-76
2023/09/12 04:36:57;;;;;;;22.95;20.40;;;19.90;99.90;;;;;;5050782;28;20106;-76
2023/09/12 04:39:23;;;;;;;25.02;20.48;;;19.80;99.90;;;;;;5052024;28;20043;-76
2023/09/12 04:41:48;;;;;;;26.92;24.33;;;19.90;99.90;;;;;;5053109;28;20028;-76
2023/09/12 04:44:14;;;;;;;25.58;23.17;;;19.90;99.90;;;;;;5052464;28;20054;-76
2023/09/12 04:46:40;;;;;;;26.58;23.88;;;19.90;99.90;;;;;;5052140;28;20108;-76
2023/09/12 04:49:05;;;;;;;28.90;25.98;;;19.90;99.90;;;;;;5051777;28;20024;-76
2023/09/12 04:51:31;;;;;;;27.25;24.25;;;19.90;99.90;;;;;;5050563;28;20033;-76
2023/09/12 04:53:57;;;;;;;25.77;23.33;;;20.00;99.90;;;;;;5051635;28;20067;-76
2023/09/12 04:56:25;;;;;;;27.88;25.13;;;20.00;99.90;;;;;;5049576;28;20425;-76
2023/09/12 04:58:50;;;;;;;23.88;21.63;;;20.00;99.90;;;;;;5051083;28;20017;-76
2023/09/12 05:01:16;;;;;;;25.17;22.77;;;20.10;99.90;;;;;;5052007;28;20025;-76
2023/09/12 05:03:42;;;;;;;30.58;25.17;;;20.20;99.90;;;;;;5057344;28;20523;-76
2023/09/12 05:06:08;;;;;;;26.52;23.95;;;20.20;99.90;;;;;;5070960;28;20094;-76
2023/09/12 05:08:34;;;;;;;31.33;28.02;;;20.20;99.90;;;;;;5065257;28;20101;-76
2023/09/12 05:10:59;;;;;;;28.70;25.63;;;20.20;99.90;;;;;;5051569;28;20052;-76
2023/09/12 05:13:25;;;;;;;24.38;21.77;;;20.30;99.90;;;;;;5069969;28;20407;-76
2023/09/12 05:15:50;;;;;;;30.42;27.30;;;20.30;99.90;;;;;;5057485;28;20029;-76
2023/09/12 05:18:16;;;;;;;27.42;24.77;;;20.30;99.90;;;;;;5051261;28;20023;-76
2023/09/12 05:20:42;;;;;;;29.05;26.05;;;20.30;99.90;;;;;;5051615;28;20071;-77
2023/09/12 05:23:08;;;;;;;30.35;26.60;;;20.30;99.90;;;;;;5050647;28;20013;-76
2023/09/12 05:25:33;;;;;;;34.05;28.42;;;20.40;99.90;;;;;;5051735;28;20051;-76
2023/09/12 05:27:59;;;;;;;33.10;27.10;;;20.40;99.90;;;;;;5052375;28;20382;-76
2023/09/12 05:30:25;;;;;;;44.90;32.53;;;20.40;99.90;;;;;;5051585;28;20038;-76
2023/09/12 05:32:50;;;;;;;47.33;32.85;;;20.40;99.90;;;;;;5051197;28;20021;-76
2023/09/12 05:35:16;;;;;;;41.67;31.08;;;20.40;99.90;;;;;;5051347;28;20466;-76
2023/09/12 05:37:41;;;;;;;63.13;34.38;;;20.50;99.90;;;;;;5051610;28;20106;-76
2023/09/12 05:40:07;;;;;;;53.60;35.78;;;20.50;99.90;;;;;;5051176;28;20025;-79
2023/09/12 05:42:33;;;;;;;68.10;39.80;;;20.50;99.90;;;;;;5050235;28;20024;-79
2023/09/12 05:44:58;;;;;;;60.20;37.53;;;20.50;99.90;;;;;;5051737;28;20048;-79
2023/09/12 05:47:24;;;;;;;78.95;42.08;;;20.50;99.90;;;;;;5048140;28;20108;-79
2023/09/12 05:49:50;;;;;;;58.30;38.17;;;20.50;99.90;;;;;;5043965;28;20487;-79
2023/09/12 05:52:15;;;;;;;92.00;49.50;;;20.50;99.90;;;;;;5049618;28;20031;-79
2023/09/12 05:54:42;;;;;;;62.05;44.95;;;20.50;99.90;;;;;;5040670;28;20029;-79
2023/09/12 05:57:09;;;;;;;67.40;47.10;;;20.60;99.90;;;;;;5046909;28;20132;-80
2023/09/12 05:59:38;;;;;;;54.10;40.22;;;20.60;99.90;;;;;;5044739;28;20044;-79
2023/09/12 06:02:05;;;;;;;73.60;49.42;;;20.60;99.90;;;;;;5049613;28;20056;-80
2023/09/12 06:04:34;;;;;;;59.33;42.42;;;20.60;99.90;;;;;;5051002;28;20024;-79
2023/09/12 06:07:02;;;;;;;58.55;44.42;;;20.60;99.90;;;;;;5050666;28;20029;-79
2023/09/12 06:09:27;;;;;;;69.18;48.72;;;20.70;99.90;;;;;;5053411;28;20021;-81
2023/09/12 06:11:53;;;;;;;58.35;45.22;;;20.70;99.90;;;;;;5049653;28;20521;-81
2023/09/12 06:14:19;;;;;;;68.72;46.95;;;20.70;99.90;;;;;;5053335;28;20033;-82
2023/09/12 06:16:45;;;;;;;68.35;47.13;;;20.80;99.90;;;;;;5054881;28;20032;-81
2023/09/12 06:19:10;;;;;;;76.45;48.88;;;20.70;99.90;;;;;;5050086;28;20025;-81
2023/09/12 06:21:36;;;;;;;74.28;50.72;;;20.80;99.90;;;;;;5049807;28;20378;-81
2023/09/12 06:24:16;;;;;;;63.00;46.72;;;20.90;99.90;;;;;;5062377;28;20069;-81
2023/09/12 06:26:42;;;;;;;63.85;46.22;;;21.00;99.90;;;;;;5053326;28;20524;-82
2023/09/12 06:29:08;;;;;;;65.68;48.20;;;21.00;99.90;;;;;;5050416;28;20021;-82
2023/09/12 06:31:33;;;;;;;62.60;45.30;;;21.00;99.90;;;;;;5056350;28;20035;-81
2023/09/12 06:33:59;;;;;;;67.72;47.15;;;21.00;99.90;;;;;;5067891;28;20460;-82
2023/09/12 06:36:25;;;;;;;63.88;44.58;;;21.00;99.90;;;;;;5068061;28;20063;-82
2023/09/12 06:38:51;;;;;;;58.40;43.83;;;21.00;99.90;;;;;;5055518;28;20021;-83
2023/09/12 06:41:20;;;;;;;63.55;45.05;;;21.00;99.90;;;;;;5071881;28;20024;-83
2023/09/12 06:43:46;;;;;;;75.25;54.08;;;21.00;99.90;;;;;;5062924;28;20113;-81
2023/09/12 06:46:12;;;;;;;69.95;48.15;;;21.00;99.90;;;;;;5054558;28;20025;-82
2023/09/12 06:48:37;;;;;;;71.18;50.88;;;21.00;99.90;;;;;;5053018;28;20024;-82
2023/09/12 06:51:06;;;;;;;85.45;53.78;;;21.00;99.90;;;;;;5058932;28;20095;-82
2023/09/12 06:53:32;;;;;;;68.97;50.40;;;21.00;99.90;;;;;;5062151;28;20528;-82
2023/09/12 06:55:58;;;;;;;65.65;47.75;;;21.00;99.90;;;;;;5059253;28;20140;-81
2023/09/12 06:58:24;;;;;;;73.05;53.20;;;21.00;99.90;;;;;;5059696;28;20020;-82
2023/09/12 07:00:50;;;;;;;74.78;50.72;;;21.10;99.90;;;;;;5066301;28;20527;-82
2023/09/12 07:03:16;;;;;;;84.88;55.67;;;21.20;99.90;;;;;;5050019;28;20021;-82
2023/09/12 07:05:42;;;;;;;75.32;52.30;;;21.20;99.90;;;;;;5058083;28;20500;-83
2023/09/12 07:08:08;;;;;;;75.35;51.00;;;21.20;99.90;;;;;;5058141;28;20025;-94
2023/09/12 07:10:34;;;;;;;67.78;48.95;;;21.30;99.90;;;;;;5057782;28;20024;-81
2023/09/12 07:12:59;;;;;;;80.43;56.28;;;21.30;99.90;;;;;;5057012;28;20571;-82
2023/09/12 07:15:25;;;;;;;77.65;56.03;;;21.30;99.90;;;;;;5048695;28;20067;-83
2023/09/12 07:17:51;;;;;;;76.78;54.72;;;21.40;99.90;;;;;;5055271;28;20116;-83
2023/09/12 07:20:19;;;;;;;70.47;52.90;;;21.40;99.90;;;;;;5056064;28;20047;-83
2023/09/12 07:22:46;;;;;;;63.08;47.65;;;21.50;99.90;;;;;;5056022;28;20016;-83
2023/09/12 07:25:13;;;;;;;67.28;51.45;;;21.50;99.90;;;;;;5050567;28;20075;-83
2023/09/12 07:27:39;;;;;;;71.88;52.85;;;21.50;99.90;;;;;;5053164;28;20037;-84
2023/09/12 07:30:06;;;;;;;74.95;54.72;;;21.60;99.90;;;;;;5050760;28;20025;-83
2023/09/12 07:32:31;;;;;;;66.35;49.00;;;21.60;99.90;;;;;;5069789;28;20020;-81
2023/09/12 07:34:57;;;;;;;77.72;55.88;;;21.60;99.90;;;;;;5067371;28;20032;-82
2023/09/12 07:37:23;;;;;;;67.53;52.83;;;21.70;99.90;;;;;;5054413;28;20032;-82
2023/09/12 07:39:48;;;;;;;70.88;51.80;;;21.70;99.90;;;;;;5050154;28;20387;-82
2023/09/12 07:42:14;;;;;;;70.90;54.42;;;21.60;99.90;;;;;;5052808;28;20776;-82
2023/09/12 07:44:39;;;;;;;69.45;53.22;;;21.70;99.90;;;;;;5051639;28;20021;-82
2023/09/12 07:47:05;;;;;;;71.40;56.90;;;21.80;99.90;;;;;;5074976;28;20501;-82
2023/09/12 07:49:31;;;;;;;78.63;59.33;;;21.80;99.90;;;;;;5050706;28;20402;-82
2023/09/12 07:51:57;;;;;;;70.93;54.47;;;21.90;99.90;;;;;;5056132;28;20029;-82
2023/09/12 07:54:22;;;;;;;72.78;55.35;;;21.90;99.90;;;;;;5056891;28;20024;-83
2023/09/12 07:56:48;;;;;;;77.55;56.60;;;21.90;99.90;;;;;;5053810;28;20562;-82
2023/09/12 07:59:14;;;;;;;72.55;56.25;;;22.00;99.90;;;;;;5055918;28;20098;-82
2023/09/12 08:01:40;;;;;;;80.88;58.83;;;22.00;99.90;;;;;;5054498;28;20058;-82
2023/09/12 08:04:06;;;;;;;65.00;51.30;;;22.00;99.90;;;;;;5057781;28;20729;-82
2023/09/12 08:06:34;;;;;;;71.55;55.83;;;22.00;99.90;;;;;;5062731;28;20035;-83
2023/09/12 08:09:00;;;;;;;79.30;57.65;;;22.00;99.90;;;;;;5062904;28;20067;-83
2023/09/12 08:11:27;;;;;;;65.45;50.65;;;22.00;99.90;;;;;;5065065;28;20013;-82
2023/09/12 08:13:52;;;;;;;66.00;52.13;;;21.90;99.90;;;;;;5062467;28;20540;-83
2023/09/12 08:16:18;;;;;;;69.03;53.92;;;21.90;99.90;;;;;;5056335;28;20036;-88
2023/09/12 08:18:44;;;;;;;69.05;55.05;;;21.90;99.90;;;;;;5053280;28;20033;-81
2023/09/12 08:21:10;;;;;;;74.65;60.05;;;21.90;99.90;;;;;;5052940;28;20453;-86
2023/09/12 08:23:36;;;;;;;69.57;54.20;;;21.90;99.90;;;;;;5063586;28;20037;-86
2023/09/12 08:26:01;;;;;;;65.80;51.67;;;21.90;99.90;;;;;;5052444;28;20021;-87
2023/09/12 08:28:27;;;;;;;67.80;54.38;;;21.90;99.90;;;;;;5059138;28;20436;-86
2023/09/12 08:30:52;;;;;;;73.07;54.45;;;21.80;99.90;;;;;;5059483;28;20509;-91
2023/09/12 08:33:18;;;;;;;69.28;51.08;;;21.90;99.90;;;;;;5049236;28;20485;-88
2023/09/12 08:35:44;;;;;;;67.80;50.85;;;21.90;99.90;;;;;;5054271;28;20016;-87
2023/09/12 08:38:10;;;;;;;68.55;52.53;;;21.90;99.90;;;;;;5053326;28;20074;-87
2023/09/12 08:40:36;;;;;;;64.43;50.80;;;21.90;99.90;;;;;;5053753;28;20431;-87
2023/09/12 08:43:05;;;;;;;60.45;49.78;;;21.90;99.90;;;;;;5055683;28;20505;-82
2023/09/12 08:45:30;;;;;;;63.10;48.58;;;21.80;99.90;;;;;;5059915;28;20048;-83
2023/09/12 08:48:00;;;;;;;59.90;47.70;;;21.90;99.90;;;;;;5054238;28;20719;-83
2023/09/12 08:50:28;;;;;;;56.90;46.60;;;21.90;99.90;;;;;;5053457;28;20686;-83
2023/09/12 08:52:54;;;;;;;59.17;47.30;;;21.90;99.90;;;;;;5067527;28;20040;-83
2023/09/12 08:55:19;;;;;;;51.75;44.50;;;22.00;99.90;;;;;;5052854;28;20045;-83
2023/09/12 08:57:50;;;;;;;47.28;40.00;;;22.00;99.90;;;;;;5062178;28;20024;-83
2023/09/12 09:00:16;;;;;;;49.97;42.05;;;22.10;99.90;;;;;;5057932;28;20394;-82
2023/09/12 09:02:43;;;;;;;48.17;38.95;;;22.10;99.90;;;;;;5062490;28;20025;-81
2023/09/12 09:05:10;;;;;;;49.67;38.63;;;22.10;99.90;;;;;;5058654;28;20021;-80
2023/09/12 09:07:41;;;;;;;49.75;44.30;;;22.20;99.90;;;;;;5073095;28;20028;-82
2023/09/12 09:10:10;;;;;;;42.70;37.00;;;22.20;99.90;;;;;;5052820;28;20025;-82
2023/09/12 09:12:39;;;;;;;38.95;34.10;;;22.20;99.90;;;;;;5059872;28;20028;-85
2023/09/12 09:15:41;;;;;;;40.10;34.33;;;22.30;99.90;;;;;;5056325;28;20028;-84
2023/09/12 09:18:07;;;;;;;42.00;33.67;;;22.40;99.90;;;;;;5039767;28;20033;-84
2023/09/12 09:20:37;;;;;;;42.60;34.58;;;22.40;99.90;;;;;;5037945;28;20116;-85
2023/09/12 09:23:08;;;;;;;32.00;28.48;;;22.40;99.90;;;;;;5046100;28;20513;-84
2023/09/12 09:25:37;;;;;;;33.65;30.02;;;22.50;99.90;;;;;;5030998;28;20056;-83
2023/09/12 09:28:19;;;;;;;38.33;30.73;;;22.50;99.90;;;;;;5039627;28;20155;-83
2023/09/12 09:30:52;;;;;;;30.95;27.65;;;22.60;99.90;;;;;;5040687;28;20430;-84
2023/09/12 09:33:18;;;;;;;33.20;29.80;;;22.60;99.90;;;;;;5039345;28;20033;-84
2023/09/12 09:35:48;;;;;;;28.77;25.60;;;22.70;99.90;;;;;;5026877;28;20036;-84
2023/09/12 09:38:16;;;;;;;29.73;26.67;;;22.80;99.90;;;;;;5025264;28;20025;-85
2023/09/12 09:40:42;;;;;;;29.23;25.13;;;22.90;99.90;;;;;;5034805;28;20025;-84
2023/09/12 09:43:09;;;;;;;23.90;21.40;;;23.00;99.90;;;;;;5016721;28;20817;-84
2023/09/12 09:45:45;;;;;;;26.00;23.30;;;23.10;99.90;;;;;;5012661;28;20488;-84
2023/09/12 09:48:18;;;;;;;25.30;22.65;;;23.10;99.90;;;;;;5038951;28;20013;-84
2023/09/12 09:50:44;;;;;;;24.90;21.95;;;23.20;99.90;;;;;;5028373;28;20402;-83
2023/09/12 09:53:10;;;;;;;22.30;20.00;;;23.20;99.90;;;;;;5054868;28;20025;-82
2023/09/12 09:55:36;;;;;;;23.77;21.27;;;23.30;99.90;;;;;;5064802;28;20041;-82
2023/09/12 09:58:05;;;;;;;21.38;19.15;;;23.40;99.90;;;;;;5056861;28;20036;-81
2023/09/12 10:00:34;;;;;;;22.42;19.40;;;23.40;99.90;;;;;;5061032;28;20020;-81
2023/09/12 10:03:02;;;;;;;19.20;17.05;;;23.50;99.90;;;;;;5057585;28;20029;-81
2023/09/12 10:05:30;;;;;;;20.10;18.05;;;23.60;99.90;;;;;;5061723;28;20048;-81
2023/09/12 10:08:00;;;;;;;20.13;18.10;;;23.60;99.90;;;;;;5058813;28;20328;-80
2023/09/12 10:10:27;;;;;;;25.33;22.70;;;23.60;99.90;;;;;;5055201;28;20406;-81
2023/09/12 10:12:57;;;;;;;22.70;20.33;;;23.60;99.90;;;;;;5049163;28;20059;-81
2023/09/12 10:15:23;;;;;;;20.48;18.38;;;23.60;99.90;;;;;;5060706;28;20047;-81
2023/09/12 10:17:59;;;;;;;19.33;17.02;;;23.70;99.90;;;;;;5056915;28;20040;-81
2023/09/12 10:20:39;;;;;;;19.17;15.93;;;23.70;99.90;;;;;;5051087;28;20028;-81
2023/09/12 10:23:26;;;;;;;16.50;14.90;;;23.70;99.90;;;;;;5052544;28;20036;-80
2023/09/12 10:25:54;;;;;;;15.82;13.93;;;23.70;99.90;;;;;;5070251;28;20066;-81
2023/09/12 10:28:21;;;;;;;16.73;15.18;;;23.70;99.90;;;;;;5051602;28;20694;-80
2023/09/12 10:30:49;;;;;;;20.45;18.35;;;23.70;99.90;;;;;;5055189;28;20099;-80
2023/09/12 10:33:15;;;;;;;17.60;15.73;;;23.80;99.90;;;;;;5050929;28;20025;-80
2023/09/12 10:35:44;;;;;;;20.92;17.95;;;23.70;99.90;;;;;;5053951;28;20028;-81
2023/09/12 10:38:13;;;;;;;22.70;17.60;;;23.80;99.90;;;;;;5050141;28;20635;-80
2023/09/12 10:40:40;;;;;;;19.52;17.23;;;23.80;99.90;;;;;;5054635;28;20029;-80
2023/09/12 10:43:09;;;;;;;16.40;14.70;;;23.80;99.90;;;;;;5049810;28;20469;-81
2023/09/12 10:45:36;;;;;;;18.05;15.77;;;23.80;99.90;;;;;;5062844;28;20097;-81
2023/09/12 10:48:02;;;;;;;15.15;13.65;;;23.80;99.90;;;;;;5055358;28;20513;-81
2023/09/12 10:50:29;;;;;;;19.05;16.73;;;23.90;99.90;;;;;;5056293;28;20110;-81
2023/09/12 10:52:54;;;;;;;14.43;13.05;;;24.00;99.90;;;;;;5067968;28;20455;-81
2023/09/12 10:55:20;;;;;;;17.42;15.68;;;24.10;99.90;;;;;;5054533;28;20461;-81
2023/09/12 10:58:05;;;;;;;16.70;15.05;;;24.30;99.90;;;;;;5059046;28;20482;-82
2023/09/12 11:00:34;;;;;;;18.40;16.50;;;24.40;99.70;;;;;;5056618;28;20025;-81
2023/09/12 11:03:20;;;;;;;14.40;12.50;;;24.70;99.70;;;;;;5042576;28;20036;-81
2023/09/12 11:05:53;;;;;;;15.27;13.82;;;24.70;99.70;;;;;;5056565;28;20087;-81
2023/09/12 11:08:19;;;;;;;15.95;14.45;;;24.90;99.50;;;;;;5056974;28;20021;-81
2023/09/12 11:10:45;;;;;;;17.10;15.45;;;24.90;99.30;;;;;;5072291;28;20393;-87
2023/09/12 11:13:18;;;;;;;16.45;14.50;;;24.90;99.20;;;;;;5056146;28;20021;-87
2023/09/12 11:16:10;;;;;;;18.23;15.85;;;25.00;99.30;;;;;;5055629;28;20021;-91
2023/09/12 11:19:12;;;;;;;17.70;15.82;;;25.00;99.00;;;;;;5049939;28;20036;-91
2023/09/12 11:21:37;;;;;;;18.55;16.08;;;25.00;99.00;;;;;;5057196;28;20032;-88
2023/09/12 11:24:03;;;;;;;17.08;15.27;;;25.00;98.90;;;;;;5066713;28;20028;-88
2023/09/12 11:26:29;;;;;;;14.60;13.15;;;25.00;98.70;;;;;;5063182;28;20029;-86
2023/09/12 11:28:55;;;;;;;16.70;13.90;;;25.00;98.80;;;;;;5049094;28;20040;-80
2023/09/12 11:31:27;;;;;;;18.30;14.50;;;25.10;98.40;;;;;;5051022;28;20018;-81
2023/09/12 11:33:53;;;;;;;15.45;12.98;;;25.10;98.20;;;;;;5049574;28;20037;-80
2023/09/12 11:36:19;;;;;;;17.65;13.68;;;25.10;98.10;;;;;;5050388;28;20037;-80
2023/09/12 11:38:49;;;;;;;14.60;13.23;;;25.10;97.80;;;;;;5050380;28;20470;-80
2023/09/12 11:41:35;;;;;;;12.07;10.85;;;25.00;97.90;;;;;;5049812;28;20029;-80
2023/09/12 11:44:03;;;;;;;12.63;11.20;;;25.00;97.90;;;;;;5055534;28;20017;-83
2023/09/12 11:46:30;;;;;;;16.23;14.52;;;25.00;97.90;;;;;;5053940;28;20462;-81
2023/09/12 11:48:56;;;;;;;15.95;13.98;;;25.00;97.60;;;;;;5070852;28;20103;-81
2023/09/12 11:51:26;;;;;;;12.70;11.40;;;25.00;97.50;;;;;;5053187;28;20037;-80
2023/09/12 11:53:53;;;;;;;12.05;10.85;;;25.00;97.60;;;;;;5052195;28;20024;-79
2023/09/12 11:56:19;;;;;;;12.75;10.73;;;25.10;97.90;;;;;;5054114;28;20136;-79
2023/09/12 11:58:44;;;;;;;15.20;13.60;;;25.20;97.80;;;;;;5070755;28;20104;-80
2023/09/12 12:01:12;;;;;;;18.70;16.90;;;25.30;97.70;;;;;;5053175;28;20027;-80
2023/09/12 12:03:38;;;;;;;16.38;14.65;;;25.40;97.20;;;;;;5052652;28;20116;-80
2023/09/12 12:06:04;;;;;;;17.25;14.73;;;25.40;97.10;;;;;;5054513;28;20109;-81
2023/09/12 12:08:31;;;;;;;15.30;13.70;;;25.40;97.10;;;;;;5068042;28;20028;-81
2023/09/12 12:11:00;;;;;;;13.77;12.07;;;25.40;97.00;;;;;;5071831;28;20028;-81
2023/09/12 12:13:27;;;;;;;13.63;12.27;;;25.50;96.90;;;;;;5068409;28;20042;-80
2023/09/12 12:15:53;;;;;;;15.65;13.15;;;25.40;96.80;;;;;;5060952;28;20028;-82
2023/09/12 12:18:19;;;;;;;13.25;11.95;;;25.40;96.80;;;;;;5063199;28;20029;-79
2023/09/12 12:20:44;;;;;;;11.88;10.43;;;25.40;96.60;;;;;;5056492;28;20021;-79
2023/09/12 12:23:10;;;;;;;13.48;11.88;;;25.40;96.60;;;;;;5055060;28;20074;-79
2023/09/12 12:25:36;;;;;;;16.88;12.57;;;25.40;96.70;;;;;;5056794;28;20028;-81
2023/09/12 12:28:03;;;;;;;15.00;11.73;;;25.30;96.50;;;;;;5055327;28;20017;-81